International Virtual Aviation Organisation

Russian Federation and Kazakhstan MCD

 
UAAA 130930Z 02003MPS 4300 BR SCT050 BKN100 01/M01 Q1016 R88/1///60 NOSIG
QNH:(hPa/inHg/mmHg)1016 / 30 / 762
QFE:(hPa/inHg/mmHg)933 / 27.55 / 700
Temperature1
Dew Point-1
Visibility4300
WeatherMist
Cloud CoverSCT (5000);
BKN (10000);
Transition Height600 m./4300 ft.
Transition LevelFL50
SQUAWK